Time;durP1;ratioP1;P1;durP2;ratioP2;P2;SDS_P1;SDS_P2;PMS_P1;PMS_P2;Temp;Humidity;BMP_temperature;BMP_pressure;BME280_temperature;BME280_humidity;BME280_pressure;Samples;Min_cycle;Max_cycle;Signal;HPM_P1;HPM_P2
2022/12/24 00:01:06;;;;;;;27.83;4.88;;;;;;;;;;5049263;28;20039;-61
2022/12/24 00:03:33;;;;;;;18.60;4.63;;;;;;;;;;5036269;28;20033;-61
2022/12/24 00:05:58;;;;;;;23.17;4.07;;;;;;;;;;5050388;28;20112;-61
2022/12/24 00:08:24;;;;;;;24.30;4.30;;;;;;;;;;5049852;28;20115;-60
2022/12/24 00:10:51;;;;;;;25.55;5.78;;;;;;;;;;5048212;28;20424;-61
2022/12/24 00:13:16;;;;;;;27.75;5.72;;;;;;;;;;5050277;28;20047;-61
2022/12/24 00:15:41;;;;;;;18.73;5.20;;;;;;;;;;5037952;28;20111;-61
2022/12/24 00:18:07;;;;;;;25.85;5.32;;;;;;;;;;5042512;28;20037;-61
2022/12/24 00:20:32;;;;;;;17.90;4.28;;;;;;;;;;5045871;28;20041;-61
2022/12/24 00:22:58;;;;;;;12.77;4.10;;;;;;;;;;5050797;28;20432;-61
2022/12/24 00:25:23;;;;;;;15.35;3.92;;;;;;;;;;5049327;28;20047;-61
2022/12/24 00:27:48;;;;;;;17.67;4.50;;;;;;;;;;5047335;28;20457;-61
2022/12/24 00:30:14;;;;;;;19.55;4.40;;;;;;;;;;5043902;28;20506;-61
2022/12/24 00:32:39;;;;;;;17.52;4.05;;;;;;;;;;5050471;28;20029;-61
2022/12/24 00:35:05;;;;;;;14.75;3.97;;;;;;;;;;5049017;28;20031;-61
2022/12/24 00:37:30;;;;;;;16.98;4.35;;;;;;;;;;5046042;28;20366;-61
2022/12/24 00:39:56;;;;;;;18.70;3.65;;;;;;;;;;5039996;28;20118;-61
2022/12/24 00:42:21;;;;;;;16.40;3.92;;;;;;;;;;5048099;28;20152;-61
2022/12/24 00:44:47;;;;;;;17.20;3.25;;;;;;;;;;5049997;28;20044;-61
2022/12/24 00:47:12;;;;;;;18.30;3.30;;;;;;;;;;5047062;28;20047;-61
2022/12/24 00:49:38;;;;;;;17.55;3.95;;;;;;;;;;5033141;28;20033;-61
2022/12/24 00:52:03;;;;;;;17.67;3.72;;;;;;;;;;5049530;28;20450;-61
2022/12/24 00:54:29;;;;;;;15.40;4.32;;;;;;;;;;5048105;28;20529;-63
2022/12/24 00:56:54;;;;;;;13.15;3.67;;;;;;;;;;5047502;28;20045;-61
2022/12/24 00:59:19;;;;;;;19.83;3.88;;;;;;;;;;5048037;28;20037;-61
2022/12/24 01:01:45;;;;;;;17.88;4.80;;;;;;;;;;5049504;28;20037;-61
2022/12/24 01:06:54;;;;;;;14.50;3.13;;;;;;;;;;5049296;28;20048;-63
2022/12/24 01:09:20;;;;;;;15.52;3.05;;;;;;;;;;5048343;28;20470;-62
2022/12/24 01:11:46;;;;;;;19.17;3.80;;;;;;;;;;5048955;28;20052;-63
2022/12/24 01:14:11;;;;;;;20.88;4.20;;;;;;;;;;5038397;28;20112;-62
2022/12/24 01:16:37;;;;;;;23.83;4.20;;;;;;;;;;5037605;28;20033;-62
2022/12/24 01:19:02;;;;;;;21.65;4.22;;;;;;;;;;5050375;28;20458;-63
2022/12/24 01:21:28;;;;;;;18.45;3.50;;;;;;;;;;5040444;28;20462;-63
2022/12/24 01:23:53;;;;;;;13.15;3.58;;;;;;;;;;5043545;28;20033;-63
2022/12/24 01:26:19;;;;;;;16.10;3.40;;;;;;;;;;5049583;28;20064;-63
2022/12/24 01:28:44;;;;;;;14.52;3.95;;;;;;;;;;5047259;28;20037;-63
2022/12/24 01:31:15;;;;;;;20.83;4.63;;;;;;;;;;5050237;28;20070;-63
2022/12/24 01:33:41;;;;;;;9.60;2.85;;;;;;;;;;5045687;28;20103;-63
2022/12/24 01:36:06;;;;;;;19.38;4.30;;;;;;;;;;5047496;28;20112;-63
2022/12/24 01:38:32;;;;;;;23.23;4.57;;;;;;;;;;5047908;28;20033;-62
2022/12/24 01:43:41;;;;;;;23.98;3.60;;;;;;;;;;5049133;28;20536;-61
2022/12/24 01:46:19;;;;;;;18.35;4.32;;;;;;;;;;5045943;28;20107;-61
2022/12/24 01:48:51;;;;;;;23.02;5.07;;;;;;;;;;5032866;28;20024;-61
2022/12/24 01:51:37;;;;;;;16.65;4.22;;;;;;;;;;5036072;28;20037;-61
2022/12/24 01:54:06;;;;;;;17.27;4.53;;;;;;;;;;5047502;28;20040;-61
2022/12/24 01:56:32;;;;;;;22.27;4.95;;;;;;;;;;5050976;28;20072;-61
2022/12/24 01:59:02;;;;;;;22.08;5.95;;;;;;;;;;5051852;28;20063;-61
2022/12/24 02:01:27;;;;;;;22.15;5.22;;;;;;;;;;5052080;28;20040;-61
2022/12/24 02:03:53;;;;;;;22.55;4.70;;;;;;;;;;5052475;28;20119;-61
2022/12/24 02:06:20;;;;;;;16.95;4.03;;;;;;;;;;5054030;28;20531;-61
2022/12/24 02:08:46;;;;;;;17.55;4.50;;;;;;;;;;5050280;28;20108;-61
2022/12/24 02:11:17;;;;;;;22.63;4.07;;;;;;;;;;5049673;28;20036;-62
2022/12/24 02:13:45;;;;;;;;;;;;;;;;;;5048865;28;20033;-61
2022/12/24 02:16:20;;;;;;;15.02;3.50;;;;;;;;;;5051834;28;19920;-61
2022/12/24 02:18:48;;;;;;;11.48;3.63;;;;;;;;;;5052047;28;20090;-61
2022/12/24 02:21:29;;;;;;;19.35;4.28;;;;;;;;;;5052203;28;20033;-61
2022/12/24 02:24:13;;;;;;;20.23;3.88;;;;;;;;;;5053332;28;20060;-61
2022/12/24 02:26:47;;;;;;;20.67;4.55;;;;;;;;;;5050618;28;20156;-61
2022/12/24 02:29:50;;;;;;;18.42;4.18;;;;;;;;;;5052689;28;20063;-61
2022/12/24 02:32:25;;;;;;;12.55;3.15;;;;;;;;;;5052054;28;20091;-61
2022/12/24 02:35:00;;;;;;;12.55;3.60;;;;;;;;;;5052403;28;20059;-61
2022/12/24 02:37:44;;;;;;;16.20;3.88;;;;;;;;;;5051845;28;20036;-62
2022/12/24 02:40:20;;;;;;;20.98;4.45;;;;;;;;;;5047160;28;20044;-61
2022/12/24 02:42:50;;;;;;;17.55;3.83;;;;;;;;;;5038510;28;20034;-61
2022/12/24 02:45:20;;;;;;;14.70;3.63;;;;;;;;;;5051954;28;20159;-61
2022/12/24 02:47:48;;;;;;;21.20;4.63;;;;;;;;;;5050684;28;20045;-61
2022/12/24 02:50:15;;;;;;;21.05;4.35;;;;;;;;;;5050450;28;20047;-60
2022/12/24 02:52:43;;;;;;;26.23;4.47;;;;;;;;;;5051107;28;20043;-61
2022/12/24 02:55:15;;;;;;;25.92;4.78;;;;;;;;;;5051731;28;20086;-60
2022/12/24 02:57:58;;;;;;;17.38;4.10;;;;;;;;;;5051448;28;20512;-61
2022/12/24 03:00:24;;;;;;;34.85;4.90;;;;;;;;;;5050262;28;20041;-61
2022/12/24 03:03:06;;;;;;;14.50;2.80;;;;;;;;;;5049313;28;20029;-61
2022/12/24 03:05:53;;;;;;;19.50;4.28;;;;;;;;;;5048746;28;20108;-61
2022/12/24 03:08:32;;;;;;;22.85;4.75;;;;;;;;;;5051542;28;20021;-60
2022/12/24 03:11:13;;;;;;;24.80;4.88;;;;;;;;;;5048359;28;20116;-61
2022/12/24 03:13:40;;;;;;;23.83;4.40;;;;;;;;;;5051979;28;20036;-60
2022/12/24 03:16:10;;;;;;;23.08;4.28;;;;;;;;;;5049712;28;20083;-61
2022/12/24 03:18:38;;;;;;;26.58;5.25;;;;;;;;;;5033082;28;20036;-61
2022/12/24 03:21:10;;;;;;;24.48;4.60;;;;;;;;;;5049944;28;20162;-60
2022/12/24 03:23:37;;;;;;;13.50;4.43;;;;;;;;;;5039262;28;20056;-61
2022/12/24 03:26:06;;;;;;;18.40;4.05;;;;;;;;;;5051582;28;20122;-60
2022/12/24 03:28:32;;;;;;;24.42;4.68;;;;;;;;;;5049323;28;20051;-61
2022/12/24 03:31:02;;;;;;;25.85;5.35;;;;;;;;;;5051683;28;20035;-60
2022/12/24 03:33:27;;;;;;;19.48;4.70;;;;;;;;;;5049786;28;20108;-61
2022/12/24 03:35:53;;;;;;;18.02;4.82;;;;;;;;;;5051058;28;20103;-60
2022/12/24 03:38:18;;;;;;;25.17;4.60;;;;;;;;;;5050139;28;20378;-60
2022/12/24 03:40:44;;;;;;;22.27;4.65;;;;;;;;;;5048728;28;20120;-60
2022/12/24 03:43:09;;;;;;;24.58;4.43;;;;;;;;;;5048617;28;20033;-60
2022/12/24 03:45:34;;;;;;;24.27;5.15;;;;;;;;;;5050126;28;20493;-60
2022/12/24 03:48:00;;;;;;;17.88;3.97;;;;;;;;;;5048322;28;20478;-60
2022/12/24 03:50:25;;;;;;;20.52;4.05;;;;;;;;;;5051063;28;20094;-60
2022/12/24 03:52:51;;;;;;;16.50;3.65;;;;;;;;;;5046771;28;20694;-61
2022/12/24 03:55:16;;;;;;;23.02;4.28;;;;;;;;;;5048228;28;20039;-60
2022/12/24 03:57:41;;;;;;;31.02;5.15;;;;;;;;;;5048423;28;20106;-61
2022/12/24 04:00:07;;;;;;;20.77;4.95;;;;;;;;;;5050183;28;20025;-60
2022/12/24 04:02:33;;;;;;;18.77;4.32;;;;;;;;;;5049331;28;20110;-61
2022/12/24 04:04:59;;;;;;;24.30;5.38;;;;;;;;;;5051281;28;20049;-59
2022/12/24 04:07:25;;;;;;;29.20;5.07;;;;;;;;;;5051420;28;20106;-60
2022/12/24 04:09:51;;;;;;;23.77;5.15;;;;;;;;;;5047508;28;20029;-60
2022/12/24 04:12:16;;;;;;;21.65;4.65;;;;;;;;;;5049619;28;20496;-59
2022/12/24 04:14:41;;;;;;;24.75;4.60;;;;;;;;;;5050160;28;20025;-60
2022/12/24 04:17:07;;;;;;;16.02;3.47;;;;;;;;;;5047777;28;20142;-60
2022/12/24 04:19:32;;;;;;;26.23;4.72;;;;;;;;;;5051167;28;20466;-60
2022/12/24 04:21:58;;;;;;;20.27;4.13;;;;;;;;;;5044672;28;20068;-61
2022/12/24 04:24:23;;;;;;;20.77;4.78;;;;;;;;;;5049063;28;20037;-60
2022/12/24 04:26:48;;;;;;;23.00;4.20;;;;;;;;;;5049653;28;20033;-60
2022/12/24 04:29:14;;;;;;;25.58;4.57;;;;;;;;;;5051472;28;20077;-61
2022/12/24 04:31:39;;;;;;;24.63;4.00;;;;;;;;;;5049900;28;20028;-61
2022/12/24 04:34:05;;;;;;;24.17;4.50;;;;;;;;;;5047128;28;20029;-60
2022/12/24 04:36:30;;;;;;;18.08;4.80;;;;;;;;;;5049466;28;20029;-61
2022/12/24 04:38:55;;;;;;;28.70;3.70;;;;;;;;;;5033509;28;20041;-59
2022/12/24 04:41:22;;;;;;;19.13;3.13;;;;;;;;;;5050250;28;20393;-58
2022/12/24 04:43:48;;;;;;;22.38;4.38;;;;;;;;;;5048885;28;20037;-59
2022/12/24 04:46:22;;;;;;;19.10;4.00;;;;;;;;;;5050248;28;20048;-58
2022/12/24 04:48:49;;;;;;;16.50;2.92;;;;;;;;;;5048480;28;20382;-60
2022/12/24 04:51:15;;;;;;;15.73;3.65;;;;;;;;;;5045855;28;20105;-58
2022/12/24 04:53:42;;;;;;;28.40;4.05;;;;;;;;;;5049719;28;20034;-61
2022/12/24 04:56:19;;;;;;;16.80;3.45;;;;;;;;;;5048320;28;20025;-61
2022/12/24 04:58:45;;;;;;;27.38;4.65;;;;;;;;;;5037945;28;20473;-60
2022/12/24 05:01:22;;;;;;;20.42;3.40;;;;;;;;;;5049267;28;20086;-60
2022/12/24 05:03:49;;;;;;;23.85;3.60;;;;;;;;;;5043687;28;20033;-61
2022/12/24 05:06:17;;;;;;;22.60;3.92;;;;;;;;;;5038239;28;20470;-60
2022/12/24 05:08:43;;;;;;;19.17;4.28;;;;;;;;;;5049538;28;20040;-60
2022/12/24 05:11:13;;;;;;;20.58;5.40;;;;;;;;;;5043490;28;20037;-60
2022/12/24 05:13:38;;;;;;;24.95;5.75;;;;;;;;;;5044072;28;20132;-61
2022/12/24 05:16:04;;;;;;;31.67;6.47;;;;;;;;;;5047598;28;21566;-60
2022/12/24 05:18:29;;;;;;;45.50;8.40;;;;;;;;;;5049044;28;20039;-59
2022/12/24 05:20:54;;;;;;;20.73;4.80;;;;;;;;;;5047942;28;20115;-59
2022/12/24 05:26:23;;;;;;;13.40;3.80;;;;;;;;;;5050190;28;20100;-59
2022/12/24 05:28:59;;;;;;;33.88;6.80;;;;;;;;;;5052560;28;20028;-59
2022/12/24 05:31:27;;;;;;;28.80;7.82;;;;;;;;;;5052787;28;20047;-60
2022/12/24 05:33:53;;;;;;;20.17;5.25;;;;;;;;;;5051267;28;20037;-59
2022/12/24 05:36:19;;;;;;;28.42;6.43;;;;;;;;;;5053253;28;20461;-61
2022/12/24 05:38:45;;;;;;;17.00;4.15;;;;;;;;;;5042950;28;20029;-61
2022/12/24 05:41:10;;;;;;;16.40;5.03;;;;;;;;;;5052326;28;20051;-61
2022/12/24 05:43:36;;;;;;;16.65;4.75;;;;;;;;;;5052425;28;20037;-61
2022/12/24 05:46:06;;;;;;;28.25;6.05;;;;;;;;;;5052507;28;20033;-61
2022/12/24 05:48:31;;;;;;;23.58;5.57;;;;;;;;;;5054588;28;20032;-60
2022/12/24 05:50:57;;;;;;;19.40;5.18;;;;;;;;;;5050622;28;20044;-59
2022/12/24 05:53:22;;;;;;;18.08;5.30;;;;;;;;;;5053684;28;20044;-61
2022/12/24 05:55:48;;;;;;;27.48;6.47;;;;;;;;;;5051702;28;20358;-61
2022/12/24 05:58:14;;;;;;;23.77;5.47;;;;;;;;;;5052426;28;20053;-61
2022/12/24 06:00:40;;;;;;;19.05;5.18;;;;;;;;;;5050352;28;20370;-61
2022/12/24 06:03:05;;;;;;;18.45;5.47;;;;;;;;;;5053298;28;20505;-61
2022/12/24 06:05:30;;;;;;;21.13;5.35;;;;;;;;;;5053051;28;20025;-60
2022/12/24 06:07:56;;;;;;;17.70;5.20;;;;;;;;;;5051779;28;20086;-60
2022/12/24 06:10:22;;;;;;;21.33;4.90;;;;;;;;;;5042376;28;20124;-60
2022/12/24 06:12:47;;;;;;;19.27;5.10;;;;;;;;;;5050194;28;20400;-60
2022/12/24 06:15:12;;;;;;;22.10;5.68;;;;;;;;;;5052000;28;20037;-60
2022/12/24 06:17:38;;;;;;;22.75;4.95;;;;;;;;;;5037161;28;20033;-61
2022/12/24 06:20:04;;;;;;;20.02;5.05;;;;;;;;;;5045811;28;20037;-60
2022/12/24 06:22:30;;;;;;;23.85;5.32;;;;;;;;;;5050957;28;20130;-61
2022/12/24 06:24:55;;;;;;;15.93;3.83;;;;;;;;;;5045129;28;20063;-61
2022/12/24 06:27:20;;;;;;;17.58;4.55;;;;;;;;;;5053990;28;20021;-60
2022/12/24 06:29:46;;;;;;;21.27;4.88;;;;;;;;;;5052159;28;20048;-61
2022/12/24 06:32:11;;;;;;;17.25;4.88;;;;;;;;;;5054202;28;20029;-60
2022/12/24 06:34:36;;;;;;;22.33;5.75;;;;;;;;;;5051543;28;20036;-60
2022/12/24 06:37:02;;;;;;;18.95;5.10;;;;;;;;;;5050844;28;20041;-60
2022/12/24 06:39:27;;;;;;;15.52;4.70;;;;;;;;;;5052996;28;20059;-61
2022/12/24 06:41:53;;;;;;;18.02;4.78;;;;;;;;;;5064994;28;20111;-61
2022/12/24 06:44:18;;;;;;;15.02;4.38;;;;;;;;;;5059739;28;20493;-61
2022/12/24 06:46:44;;;;;;;15.88;4.38;;;;;;;;;;5051653;28;20033;-61
2022/12/24 06:49:09;;;;;;;17.77;3.85;;;;;;;;;;5052429;28;20040;-60
2022/12/24 06:51:34;;;;;;;17.45;5.45;;;;;;;;;;5053260;28;20115;-60
2022/12/24 06:54:00;;;;;;;15.88;4.15;;;;;;;;;;5050052;28;20025;-61
2022/12/24 06:56:25;;;;;;;12.27;4.55;;;;;;;;;;5053066;28;20053;-60
2022/12/24 06:58:51;;;;;;;17.30;4.72;;;;;;;;;;5051256;28;20028;-61
2022/12/24 07:01:18;;;;;;;18.02;4.63;;;;;;;;;;5052069;28;20092;-61
2022/12/24 07:03:44;;;;;;;16.65;3.92;;;;;;;;;;5050341;28;20025;-61
2022/12/24 07:06:16;;;;;;;17.10;4.72;;;;;;;;;;5053416;28;20044;-61
2022/12/24 07:08:41;;;;;;;20.63;5.20;;;;;;;;;;5052134;28;20071;-62
2022/12/24 07:11:07;;;;;;;21.92;4.88;;;;;;;;;;5052034;28;20126;-61
2022/12/24 07:13:33;;;;;;;19.95;5.43;;;;;;;;;;5051883;28;20032;-61
2022/12/24 07:16:00;;;;;;;14.60;3.88;;;;;;;;;;5052077;28;20414;-61
2022/12/24 07:18:25;;;;;;;18.95;4.43;;;;;;;;;;5051645;28;20119;-61
2022/12/24 07:20:51;;;;;;;21.50;4.70;;;;;;;;;;5064892;28;20104;-61
2022/12/24 07:23:16;;;;;;;17.80;4.05;;;;;;;;;;5054921;28;20036;-61
2022/12/24 07:25:42;;;;;;;16.50;4.03;;;;;;;;;;5045433;28;20075;-57
2022/12/24 07:28:07;;;;;;;15.95;3.72;;;;;;;;;;5049823;28;20037;-53
2022/12/24 07:30:33;;;;;;;17.42;4.60;;;;;;;;;;5052073;28;20028;-55
2022/12/24 07:32:58;;;;;;;16.55;4.55;;;;;;;;;;5034163;28;20037;-60
2022/12/24 07:35:24;;;;;;;16.35;4.25;;;;;;;;;;5049143;28;20444;-60
2022/12/24 07:37:49;;;;;;;18.90;4.55;;;;;;;;;;5050661;28;20458;-61
2022/12/24 07:40:15;;;;;;;16.45;3.90;;;;;;;;;;5051738;28;20052;-60
2022/12/24 07:42:40;;;;;;;13.35;3.92;;;;;;;;;;5052555;28;20037;-60
2022/12/24 07:45:06;;;;;;;16.77;4.63;;;;;;;;;;5065798;28;20475;-60
2022/12/24 07:47:31;;;;;;;18.48;4.05;;;;;;;;;;5051514;28;20033;-60
2022/12/24 07:49:57;;;;;;;21.88;4.20;;;;;;;;;;5051295;28;20040;-60
2022/12/24 07:52:22;;;;;;;15.73;3.70;;;;;;;;;;5049576;28;20067;-59
2022/12/24 07:54:47;;;;;;;16.70;4.47;;;;;;;;;;5046585;28;20158;-60
2022/12/24 07:57:13;;;;;;;17.52;4.15;;;;;;;;;;5048418;28;20040;-59
2022/12/24 07:59:38;;;;;;;11.57;3.67;;;;;;;;;;5050540;28;20388;-59
2022/12/24 08:02:04;;;;;;;18.05;4.47;;;;;;;;;;5051443;28;20150;-60
2022/12/24 08:04:35;;;;;;;14.32;4.15;;;;;;;;;;5052039;28;20112;-61
2022/12/24 08:07:01;;;;;;;19.50;4.65;;;;;;;;;;5045611;28;20036;-58
2022/12/24 08:09:26;;;;;;;16.85;4.70;;;;;;;;;;5048126;28;20037;-55
2022/12/24 08:11:52;;;;;;;16.48;4.47;;;;;;;;;;5049962;28;20394;-59
2022/12/24 08:14:17;;;;;;;15.70;4.20;;;;;;;;;;5051192;28;20106;-57
2022/12/24 08:16:43;;;;;;;13.45;3.60;;;;;;;;;;5050783;28;20144;-57
2022/12/24 08:19:08;;;;;;;17.33;3.60;;;;;;;;;;5049985;28;20037;-57
2022/12/24 08:21:33;;;;;;;14.80;3.65;;;;;;;;;;5052049;28;20389;-56
2022/12/24 08:23:59;;;;;;;11.27;2.78;;;;;;;;;;5047618;28;20029;-54
2022/12/24 08:26:24;;;;;;;17.33;3.65;;;;;;;;;;5053406;28;20048;-56
2022/12/24 08:28:50;;;;;;;17.10;4.03;;;;;;;;;;5049893;28;20505;-58
2022/12/24 08:31:15;;;;;;;16.65;3.92;;;;;;;;;;5051935;28;20033;-57
2022/12/24 08:33:40;;;;;;;12.75;3.03;;;;;;;;;;5050007;28;20469;-54
2022/12/24 08:36:06;;;;;;;9.30;2.65;;;;;;;;;;5046766;28;20353;-55
2022/12/24 08:38:31;;;;;;;18.70;4.32;;;;;;;;;;5051563;28;20060;-57
2022/12/24 08:40:57;;;;;;;17.50;4.85;;;;;;;;;;5050797;28;20416;-57
2022/12/24 08:43:24;;;;;;;17.35;3.40;;;;;;;;;;5050520;28;20025;-57
2022/12/24 08:45:50;;;;;;;16.92;3.65;;;;;;;;;;5047735;28;20040;-59
2022/12/24 08:48:15;;;;;;;19.85;4.47;;;;;;;;;;5050319;28;20029;-58
2022/12/24 08:50:42;;;;;;;19.45;5.10;;;;;;;;;;5050675;28;20448;-55
2022/12/24 08:53:08;;;;;;;14.13;3.60;;;;;;;;;;5051098;28;20039;-57
2022/12/24 08:55:34;;;;;;;12.48;3.35;;;;;;;;;;5049782;28;20501;-54
2022/12/24 08:58:00;;;;;;;27.42;5.38;;;;;;;;;;5049590;28;20116;-57
2022/12/24 09:00:26;;;;;;;20.17;4.63;;;;;;;;;;5049770;28;20358;-60
2022/12/24 09:02:51;;;;;;;24.65;5.18;;;;;;;;;;5049179;28;20033;-57
2022/12/24 09:05:17;;;;;;;20.15;4.82;;;;;;;;;;5035256;28;20025;-59
2022/12/24 09:07:42;;;;;;;16.35;3.53;;;;;;;;;;5037809;28;20032;-55
2022/12/24 09:10:08;;;;;;;25.42;5.63;;;;;;;;;;5032025;28;20117;-57
2022/12/24 09:12:34;;;;;;;22.98;4.65;;;;;;;;;;5051022;28;20569;-56
2022/12/24 09:14:59;;;;;;;22.85;4.78;;;;;;;;;;5059170;28;20037;-55
2022/12/24 09:17:25;;;;;;;27.00;5.75;;;;;;;;;;5054754;28;20033;-57
2022/12/24 09:19:50;;;;;;;10.10;3.00;;;;;;;;;;5052365;28;20389;-61
2022/12/24 09:22:16;;;;;;;19.80;5.00;;;;;;;;;;5054219;28;20033;-57
2022/12/24 09:24:41;;;;;;;18.92;4.28;;;;;;;;;;5051155;28;20099;-59
2022/12/24 09:27:07;;;;;;;21.40;5.20;;;;;;;;;;5049015;28;20539;-56
2022/12/24 09:29:32;;;;;;;19.58;4.55;;;;;;;;;;5048262;28;21725;-56
2022/12/24 09:31:58;;;;;;;25.40;5.28;;;;;;;;;;5051246;28;20036;-56
2022/12/24 09:34:24;;;;;;;11.55;3.67;;;;;;;;;;5049063;28;20466;-62
2022/12/24 09:36:53;;;;;;;18.60;4.45;;;;;;;;;;5047800;28;20025;-58
2022/12/24 09:39:19;;;;;;;12.02;3.00;;;;;;;;;;5039351;28;20045;-57
2022/12/24 09:42:17;;;;;;;16.83;3.72;;;;;;;;;;5051980;28;20032;-57
2022/12/24 09:44:48;;;;;;;26.52;4.53;;;;;;;;;;5066770;28;20032;-56
2022/12/24 09:47:38;;;;;;;18.42;4.63;;;;;;;;;;5057445;28;20797;-57
2022/12/24 09:50:26;;;;;;;27.80;3.72;;;;;;;;;;5052493;28;20370;-55
2022/12/24 09:52:53;;;;;;;24.45;4.97;;;;;;;;;;5047776;28;20037;-61
2022/12/24 09:55:25;;;;;;;20.90;4.53;;;;;;;;;;5045037;28;20033;-56
2022/12/24 09:57:53;;;;;;;23.05;4.25;;;;;;;;;;5042016;28;20048;-61
2022/12/24 10:00:26;;;;;;;19.75;4.65;;;;;;;;;;5051880;28;20079;-58
2022/12/24 10:02:52;;;;;;;23.42;4.28;;;;;;;;;;5068526;28;20389;-59
2022/12/24 10:05:31;;;;;;;17.45;3.22;;;;;;;;;;5051225;28;20036;-56
2022/12/24 10:08:42;;;;;;;17.58;3.58;;;;;;;;;;5053451;28;20025;-57
2022/12/24 10:11:49;;;;;;;14.60;3.83;;;;;;;;;;5049084;28;20094;-57
2022/12/24 10:14:17;;;;;;;13.65;3.83;;;;;;;;;;5058534;28;20191;-60
2022/12/24 10:16:51;;;;;;;11.02;3.17;;;;;;;;;;5066888;28;20032;-59
2022/12/24 10:19:26;;;;;;;23.95;4.80;;;;;;;;;;5048268;28;20060;-56
2022/12/24 10:22:19;;;;;;;17.17;4.55;;;;;;;;;;5046468;28;20123;-60
2022/12/24 10:25:11;;;;;;;14.70;4.15;;;;;;;;;;5052395;28;20041;-57
2022/12/24 10:27:39;;;;;;;16.77;4.22;;;;;;;;;;5026840;28;20120;-58
2022/12/24 10:30:18;;;;;;;22.20;4.15;;;;;;;;;;5052383;28;20094;-58
2022/12/24 10:32:49;;;;;;;16.75;3.97;;;;;;;;;;5054141;28;20032;-58
2022/12/24 10:35:14;;;;;;;20.73;3.80;;;;;;;;;;5051119;28;20359;-58
2022/12/24 10:37:42;;;;;;;19.52;4.45;;;;;;;;;;5053747;28;20507;-58
2022/12/24 10:40:17;;;;;;;19.25;4.43;;;;;;;;;;5051436;28;20094;-58
2022/12/24 10:42:43;;;;;;;25.10;4.93;;;;;;;;;;5059281;28;20074;-57
2022/12/24 10:45:15;;;;;;;30.33;6.13;;;;;;;;;;5047387;28;20029;-59
2022/12/24 10:47:42;;;;;;;17.05;4.13;;;;;;;;;;5053486;28;20439;-65
2022/12/24 10:50:53;;;;;;;20.83;4.25;;;;;;;;;;5052872;28;20029;-63
2022/12/24 10:53:48;;;;;;;15.30;3.78;;;;;;;;;;5047030;28;20036;-61
2022/12/24 10:56:15;;;;;;;14.70;4.00;;;;;;;;;;5052048;28;20126;-63
2022/12/24 10:58:52;;;;;;;22.33;4.35;;;;;;;;;;5053005;28;20029;-63
2022/12/24 11:01:18;;;;;;;24.75;4.07;;;;;;;;;;5051476;28;20123;-62
2022/12/24 11:03:44;;;;;;;25.92;4.50;;;;;;;;;;5044087;28;20056;-61
2022/12/24 11:06:17;;;;;;;15.15;4.03;;;;;;;;;;5034992;28;20742;-62
2022/12/24 11:08:44;;;;;;;23.48;6.22;;;;;;;;;;5050332;28;20525;-62
2022/12/24 11:11:15;;;;;;;21.73;5.15;;;;;;;;;;5050399;28;20071;-60
2022/12/24 11:13:50;;;;;;;15.73;5.18;;;;;;;;;;5050961;28;20040;-61
2022/12/24 11:16:27;;;;;;;21.27;5.53;;;;;;;;;;5049693;28;20028;-59
2022/12/24 11:18:55;;;;;;;21.42;4.97;;;;;;;;;;5049949;28;20045;-60
2022/12/24 11:21:27;;;;;;;26.65;5.90;;;;;;;;;;5049898;28;20025;-60
2022/12/24 11:23:58;;;;;;;11.35;3.30;;;;;;;;;;5064696;28;20028;-60
2022/12/24 11:26:27;;;;;;;19.65;5.43;;;;;;;;;;5052451;28;20068;-59
2022/12/24 11:29:25;;;;;;;22.70;5.68;;;;;;;;;;5052253;28;20033;-58
2022/12/24 11:31:53;;;;;;;21.40;6.05;;;;;;;;;;5048260;28;20071;-60
2022/12/24 11:34:26;;;;;;;19.92;5.05;;;;;;;;;;5049679;28;20329;-60
2022/12/24 11:36:55;;;;;;;26.50;6.10;;;;;;;;;;5054078;28;20059;-61
2022/12/24 11:39:25;;;;;;;23.60;5.70;;;;;;;;;;5052215;28;20083;-59
2022/12/24 11:41:52;;;;;;;20.00;5.32;;;;;;;;;;5047075;28;20109;-60
2022/12/24 11:44:27;;;;;;;21.50;5.43;;;;;;;;;;5035255;28;20151;-61
2022/12/24 11:46:57;;;;;;;28.38;5.57;;;;;;;;;;5047953;28;20036;-61
2022/12/24 11:49:30;;;;;;;23.27;5.90;;;;;;;;;;5049833;28;20039;-58
2022/12/24 11:52:08;;;;;;;25.50;5.18;;;;;;;;;;5051229;28;20104;-61
2022/12/24 11:54:54;;;;;;;19.02;4.70;;;;;;;;;;5051634;28;20073;-60
2022/12/24 11:57:26;;;;;;;17.63;4.80;;;;;;;;;;5029745;28;20041;-59
2022/12/24 11:59:51;;;;;;;26.10;6.03;;;;;;;;;;5052088;28;20025;-59
2022/12/24 12:02:37;;;;;;;25.60;4.85;;;;;;;;;;5051752;28;20037;-59
2022/12/24 12:05:07;;;;;;;23.05;5.75;;;;;;;;;;5046778;28;20470;-61
2022/12/24 12:07:35;;;;;;;23.83;5.63;;;;;;;;;;5054402;28;20389;-61
2022/12/24 12:10:19;;;;;;;22.25;4.07;;;;;;;;;;5055714;28;20090;-61
2022/12/24 12:12:55;;;;;;;22.58;5.35;;;;;;;;;;5052245;28;20037;-59
2022/12/24 12:15:33;;;;;;;17.73;4.53;;;;;;;;;;5050067;28;20299;-60
2022/12/24 12:18:04;;;;;;;20.98;5.20;;;;;;;;;;5034815;28;20030;-60
2022/12/24 12:20:31;;;;;;;13.77;3.47;;;;;;;;;;5048472;28;20033;-60
2022/12/24 12:23:02;;;;;;;20.05;5.03;;;;;;;;;;5052043;28;20037;-60
2022/12/24 12:25:43;;;;;;;17.52;4.80;;;;;;;;;;5051140;28;20108;-59
2022/12/24 12:28:40;;;;;;;18.98;5.05;;;;;;;;;;5050915;28;20037;-61
2022/12/24 12:31:15;;;;;;;20.75;4.82;;;;;;;;;;5053516;28;20045;-61
2022/12/24 12:33:47;;;;;;;21.27;4.80;;;;;;;;;;5042053;28;20022;-59
2022/12/24 12:36:18;;;;;;;24.48;5.50;;;;;;;;;;5051159;28;20065;-60
2022/12/24 12:38:44;;;;;;;28.80;6.30;;;;;;;;;;5050483;28;20040;-60
2022/12/24 12:41:54;;;;;;;22.02;5.15;;;;;;;;;;5049753;28;20033;-58
2022/12/24 12:44:40;;;;;;;22.48;5.75;;;;;;;;;;5048856;28;20024;-60
2022/12/24 12:47:32;;;;;;;20.48;5.70;;;;;;;;;;5058135;28;20504;-61
2022/12/24 12:50:22;;;;;;;23.17;5.35;;;;;;;;;;5050867;28;20417;-59
2022/12/24 12:53:14;;;;;;;17.95;4.72;;;;;;;;;;5043064;28;20083;-60
2022/12/24 12:56:10;;;;;;;22.13;5.05;;;;;;;;;;5051464;28;20037;-59
2022/12/24 12:58:45;;;;;;;23.27;4.95;;;;;;;;;;5047849;28;20049;-59
2022/12/24 13:01:19;;;;;;;21.20;5.38;;;;;;;;;;5066071;28;20107;-57
2022/12/24 13:04:26;;;;;;;21.95;6.43;;;;;;;;;;5048677;28;20029;-61
2022/12/24 13:07:32;;;;;;;22.23;5.55;;;;;;;;;;5051050;28;20029;-59
2022/12/24 13:10:31;;;;;;;19.83;5.03;;;;;;;;;;5047707;28;20040;-60
2022/12/24 13:13:20;;;;;;;22.15;5.78;;;;;;;;;;5047480;28;20026;-60
2022/12/24 13:15:55;;;;;;;21.98;5.80;;;;;;;;;;5051455;28;20064;-60
2022/12/24 13:18:46;;;;;;;17.80;4.95;;;;;;;;;;5047104;28;20647;-60
2022/12/24 13:21:22;;;;;;;23.98;6.03;;;;;;;;;;5050695;28;20032;-60
2022/12/24 13:23:48;;;;;;;21.40;5.93;;;;;;;;;;5048643;28;20044;-59
2022/12/24 13:26:15;;;;;;;22.88;5.63;;;;;;;;;;5056642;28;20465;-60
2022/12/24 13:28:41;;;;;;;17.10;4.68;;;;;;;;;;5051666;28;20029;-60
2022/12/24 13:31:18;;;;;;;17.20;4.20;;;;;;;;;;5048766;28;20040;-61
2022/12/24 13:33:45;;;;;;;12.30;3.97;;;;;;;;;;5051442;28;20044;-59
2022/12/24 13:36:15;;;;;;;15.82;5.05;;;;;;;;;;5039136;28;20120;-58
2022/12/24 13:38:50;;;;;;;21.88;4.85;;;;;;;;;;5031056;28;20025;-60
2022/12/24 13:41:30;;;;;;;15.75;3.30;;;;;;;;;;5042059;28;20036;-58
2022/12/24 13:44:14;;;;;;;22.05;4.93;;;;;;;;;;5062474;28;20033;-61
2022/12/24 13:46:59;;;;;;;20.30;4.30;;;;;;;;;;5056108;28;20044;-60
2022/12/24 13:49:38;;;;;;;21.23;4.35;;;;;;;;;;5060438;28;20033;-60
2022/12/24 13:52:15;;;;;;;14.25;4.18;;;;;;;;;;5054330;28;20071;-61
2022/12/24 13:54:48;;;;;;;16.13;4.53;;;;;;;;;;5054019;28;20040;-60
2022/12/24 13:57:31;;;;;;;17.67;5.00;;;;;;;;;;5052082;28;20045;-60
2022/12/24 14:00:05;;;;;;;17.65;5.50;;;;;;;;;;5064179;28;20040;-60
2022/12/24 14:02:36;;;;;;;21.75;5.80;;;;;;;;;;5069584;28;20097;-60
2022/12/24 14:05:07;;;;;;;19.13;5.22;;;;;;;;;;5035321;28;20390;-61
2022/12/24 14:07:34;;;;;;;24.13;5.18;;;;;;;;;;5049603;28;20428;-61
2022/12/24 14:10:01;;;;;;;17.65;5.10;;;;;;;;;;5047822;28;20033;-59
2022/12/24 14:12:48;;;;;;;16.83;5.20;;;;;;;;;;5053423;28;20056;-59
2022/12/24 14:15:47;;;;;;;18.67;5.70;;;;;;;;;;5066268;28;20037;-59
2022/12/24 14:18:18;;;;;;;16.15;5.97;;;;;;;;;;5053301;28;20055;-59
2022/12/24 14:20:49;;;;;;;13.27;4.32;;;;;;;;;;5052459;28;20065;-60
2022/12/24 14:23:34;;;;;;;24.48;5.65;;;;;;;;;;5044300;28;20140;-58
2022/12/24 14:26:02;;;;;;;18.48;4.50;;;;;;;;;;5034390;28;20037;-60
2022/12/24 14:28:38;;;;;;;14.40;3.60;;;;;;;;;;5051526;28;20025;-60
2022/12/24 14:31:05;;;;;;;22.98;4.40;;;;;;;;;;5047404;28;20026;-59
2022/12/24 14:33:32;;;;;;;17.90;5.00;;;;;;;;;;5052745;28;20060;-59
2022/12/24 14:35:59;;;;;;;18.35;4.90;;;;;;;;;;5052681;28;20045;-59
2022/12/24 14:38:25;;;;;;;21.63;5.03;;;;;;;;;;5053164;28;20029;-59
2022/12/24 14:41:17;;;;;;;18.52;4.97;;;;;;;;;;5053433;28;20108;-60
2022/12/24 14:44:00;;;;;;;19.35;4.97;;;;;;;;;;5051867;28;20378;-61
2022/12/24 14:46:38;;;;;;;15.13;4.80;;;;;;;;;;5032870;28;20107;-59
2022/12/24 14:49:31;;;;;;;16.45;5.22;;;;;;;;;;5032335;28;20397;-59
2022/12/24 14:52:11;;;;;;;25.00;5.70;;;;;;;;;;5033819;28;20042;-61
2022/12/24 14:54:39;;;;;;;21.55;4.30;;;;;;;;;;5038373;28;20024;-57
2022/12/24 14:57:11;;;;;;;23.23;4.97;;;;;;;;;;5052362;28;20402;-60
2022/12/24 14:59:51;;;;;;;17.27;5.28;;;;;;;;;;5049401;28;20098;-59